Time;durP1;ratioP1;P1;durP2;ratioP2;P2;SDS_P1;SDS_P2;PMS_P1;PMS_P2;Temp;Humidity;BMP_temperature;BMP_pressure;BME280_temperature;BME280_humidity;BME280_pressure;Samples;Min_cycle;Max_cycle;Signal;HPM_P1;HPM_P2
2023/10/20 00:02:17;;;;;;;0.00;0.00;;;15.60;99.90;;;;;;5098962;28;20030;-85
2023/10/20 00:04:44;;;;;;;0.00;0.00;;;15.60;99.90;;;;;;5108977;28;20032;-84
2023/10/20 00:07:10;;;;;;;0.00;0.00;;;15.50;99.90;;;;;;5103712;28;20077;-82
2023/10/20 00:09:36;;;;;;;0.00;0.00;;;15.50;99.90;;;;;;5108412;27;20051;-82
2023/10/20 00:12:01;;;;;;;0.00;0.00;;;15.50;99.90;;;;;;5084203;28;20031;-82
2023/10/20 00:14:27;;;;;;;0.00;0.00;;;15.40;99.90;;;;;;5106816;28;20027;-84
2023/10/20 00:16:53;;;;;;;0.00;0.00;;;15.40;99.90;;;;;;5103154;28;20027;-86
2023/10/20 00:19:18;;;;;;;0.00;0.00;;;15.40;99.90;;;;;;5088659;28;20038;-81
2023/10/20 00:21:45;;;;;;;0.00;0.00;;;15.30;99.90;;;;;;5103579;28;20028;-84
2023/10/20 00:24:12;;;;;;;0.10;0.10;;;15.50;99.90;;;;;;5088422;28;20035;-81
2023/10/20 00:26:39;;;;;;;0.00;0.00;;;15.50;99.90;;;;;;5104146;28;20039;-83
2023/10/20 00:29:05;;;;;;;0.00;0.00;;;15.40;99.90;;;;;;5104603;28;20043;-82
2023/10/20 00:31:32;;;;;;;0.00;0.00;;;15.40;99.90;;;;;;5103433;28;20028;-83
2023/10/20 00:33:58;;;;;;;0.00;0.00;;;15.40;99.90;;;;;;5102580;28;20606;-84
2023/10/20 00:36:23;;;;;;;0.10;0.10;;;15.40;99.90;;;;;;5107259;28;20103;-82
2023/10/20 00:38:49;;;;;;;0.00;0.00;;;15.30;99.90;;;;;;5106134;28;20097;-83
2023/10/20 00:41:15;;;;;;;0.10;0.10;;;15.50;99.90;;;;;;5104568;28;20019;-82
2023/10/20 00:43:40;;;;;;;0.10;0.10;;;15.50;99.90;;;;;;5111691;28;20027;-83
2023/10/20 00:46:08;;;;;;;0.00;0.00;;;15.30;99.90;;;;;;5104644;28;20066;-82
2023/10/20 00:48:37;;;;;;;0.00;0.00;;;15.30;99.90;;;;;;5095218;28;20016;-83
2023/10/20 00:51:07;;;;;;;0.00;0.00;;;15.50;99.90;;;;;;5107261;28;20088;-83
2023/10/20 00:53:37;;;;;;;0.03;0.03;;;15.50;99.90;;;;;;5110759;28;20035;-85
2023/10/20 00:56:06;;;;;;;0.00;0.00;;;15.50;99.90;;;;;;5110728;28;20419;-87
2023/10/20 00:58:32;;;;;;;0.00;0.00;;;15.40;99.90;;;;;;5105083;28;21071;-82
2023/10/20 01:00:58;;;;;;;0.00;0.00;;;15.40;99.90;;;;;;5110443;28;20023;-83
2023/10/20 01:03:23;;;;;;;0.00;0.00;;;15.30;99.90;;;;;;5094166;28;20027;-84
2023/10/20 01:05:51;;;;;;;0.00;0.00;;;15.50;99.90;;;;;;5108546;28;20837;-82
2023/10/20 01:08:17;;;;;;;0.00;0.00;;;15.50;99.90;;;;;;5106008;28;20643;-84
2023/10/20 01:10:43;;;;;;;0.00;0.00;;;15.60;99.90;;;;;;5098860;28;20065;-86
2023/10/20 01:13:08;;;;;;;0.00;0.00;;;15.60;99.90;;;;;;5085124;28;20027;-80
2023/10/20 01:15:36;;;;;;;0.00;0.00;;;15.40;99.90;;;;;;5106087;28;20038;-83
2023/10/20 01:18:02;;;;;;;0.00;0.00;;;15.30;99.90;;;;;;5101554;28;20034;-82
2023/10/20 01:20:27;;;;;;;0.00;0.00;;;15.30;99.90;;;;;;5106144;28;20033;-83
2023/10/20 01:22:53;;;;;;;0.00;0.00;;;15.30;99.90;;;;;;5088327;28;20073;-83
2023/10/20 01:25:19;;;;;;;0.00;0.00;;;15.30;99.90;;;;;;5106107;28;20032;-81
2023/10/20 01:27:45;;;;;;;0.00;0.00;;;15.30;99.90;;;;;;5088727;28;20055;-82
2023/10/20 01:30:11;;;;;;;0.00;0.00;;;15.20;99.90;;;;;;5105542;28;20031;-83
2023/10/20 01:32:39;;;;;;;0.00;0.00;;;15.20;99.90;;;;;;5106231;27;20028;-82
2023/10/20 01:35:05;;;;;;;0.05;0.05;;;15.20;99.90;;;;;;5105258;28;20081;-84
2023/10/20 01:37:31;;;;;;;0.00;0.00;;;15.30;99.90;;;;;;5090662;28;20038;-81
2023/10/20 01:39:57;;;;;;;0.00;0.00;;;15.20;99.90;;;;;;5111586;27;20035;-89
2023/10/20 01:42:22;;;;;;;0.00;0.00;;;15.20;99.90;;;;;;5106849;27;20023;-85
2023/10/20 01:44:48;;;;;;;0.00;0.00;;;15.00;99.90;;;;;;5090942;27;20031;-82
2023/10/20 01:47:14;;;;;;;0.00;0.00;;;15.10;99.90;;;;;;5110851;27;20031;-82
2023/10/20 01:49:39;;;;;;;11.40;1.30;;;15.20;99.90;;;;;;5102139;27;20039;-84
2023/10/20 01:52:05;;;;;;;0.00;0.00;;;15.00;99.90;;;;;;5115407;27;20024;-84
2023/10/20 01:54:31;;;;;;;0.00;0.00;;;14.80;99.90;;;;;;5110383;27;20036;-82
2023/10/20 01:56:56;;;;;;;0.00;0.00;;;14.90;99.90;;;;;;5108020;27;20028;-79
2023/10/20 01:59:22;;;;;;;0.00;0.00;;;14.80;99.90;;;;;;5106096;28;20032;-86
2023/10/20 02:01:48;;;;;;;0.10;0.10;;;14.90;99.90;;;;;;5108211;27;20023;-82
2023/10/20 02:04:14;;;;;;;0.00;0.00;;;14.80;99.90;;;;;;5110057;27;20020;-82
2023/10/20 02:06:40;;;;;;;0.00;0.00;;;14.90;99.90;;;;;;5106015;28;20028;-80
2023/10/20 02:09:06;;;;;;;0.00;0.00;;;14.80;99.90;;;;;;5105552;27;20055;-80
2023/10/20 02:11:32;;;;;;;0.10;0.10;;;14.70;99.90;;;;;;5105688;28;20039;-87
2023/10/20 02:13:57;;;;;;;0.00;0.00;;;14.50;99.90;;;;;;5088504;28;20394;-84
2023/10/20 02:16:24;;;;;;;0.10;0.10;;;14.50;99.90;;;;;;5105991;28;20668;-84
2023/10/20 02:18:50;;;;;;;0.00;0.00;;;14.50;99.90;;;;;;5105813;27;20034;-81
2023/10/20 02:21:15;;;;;;;0.00;0.00;;;14.40;99.90;;;;;;5107645;27;20028;-82
2023/10/20 02:23:41;;;;;;;0.00;0.00;;;14.20;99.90;;;;;;5090721;28;20571;-82
2023/10/20 02:26:08;;;;;;;0.00;0.00;;;14.30;99.90;;;;;;5108580;27;20031;-81
2023/10/20 02:28:35;;;;;;;0.10;0.10;;;14.30;99.90;;;;;;5104094;27;20448;-82
2023/10/20 02:31:09;;;;;;;;;;;14.40;99.90;;;;;;5105975;27;20035;-81
2023/10/20 02:33:35;;;;;;;0.10;0.10;;;14.40;99.90;;;;;;5103507;28;19916;-82
2023/10/20 02:36:01;;;;;;;0.00;0.00;;;14.30;99.90;;;;;;5103511;27;20076;-81
2023/10/20 02:38:27;;;;;;;0.00;0.00;;;14.20;99.90;;;;;;5086734;28;20402;-82
2023/10/20 02:40:54;;;;;;;0.10;0.10;;;14.40;99.90;;;;;;5103633;27;20035;-85
2023/10/20 02:43:21;;;;;;;0.00;0.00;;;14.10;99.90;;;;;;5106666;27;20016;-80
2023/10/20 02:45:52;;;;;;;0.10;0.10;;;14.30;99.90;;;;;;5104221;27;20024;-83
2023/10/20 02:48:19;;;;;;;0.00;0.00;;;14.20;99.90;;;;;;5104492;28;20063;-82
2023/10/20 02:50:45;;;;;;;0.10;0.10;;;14.20;99.90;;;;;;5110755;27;20084;-80
2023/10/20 02:53:13;;;;;;;0.00;0.00;;;14.30;99.90;;;;;;5113006;27;20024;-83
2023/10/20 02:55:40;;;;;;;0.00;0.00;;;14.40;99.90;;;;;;5102076;27;20489;-80
2023/10/20 02:58:07;;;;;;;0.08;0.08;;;14.40;99.90;;;;;;5104964;28;20597;-80
2023/10/20 03:00:33;;;;;;;0.00;0.00;;;14.40;99.90;;;;;;5104286;28;20063;-84
2023/10/20 03:02:59;;;;;;;0.00;0.00;;;14.60;99.90;;;;;;5103818;28;20095;-80
2023/10/20 03:05:29;;;;;;;0.00;0.00;;;14.40;99.90;;;;;;5105136;27;20562;-81
2023/10/20 03:07:57;;;;;;;0.20;0.20;;;14.40;99.90;;;;;;5102496;27;20474;-81
2023/10/20 03:10:23;;;;;;;0.10;0.10;;;14.30;99.90;;;;;;5105041;27;20044;-84
2023/10/20 03:12:49;;;;;;;0.07;0.07;;;14.30;99.90;;;;;;5087960;28;20035;-81
2023/10/20 03:15:15;;;;;;;0.00;0.00;;;14.20;99.90;;;;;;5104486;27;20023;-79
2023/10/20 03:17:41;;;;;;;0.00;0.00;;;14.20;99.90;;;;;;5104824;27;20019;-83
2023/10/20 03:20:14;;;;;;;0.10;0.10;;;14.10;99.90;;;;;;5104808;27;20251;-81
2023/10/20 03:22:41;;;;;;;0.00;0.00;;;14.20;99.90;;;;;;5108333;27;20027;-79
2023/10/20 03:25:08;;;;;;;0.00;0.00;;;14.20;99.90;;;;;;5107741;27;20038;-80
2023/10/20 03:27:35;;;;;;;0.10;0.10;;;14.10;99.90;;;;;;5104207;27;20074;-81
2023/10/20 03:30:01;;;;;;;0.10;0.10;;;14.20;99.90;;;;;;5104098;28;20081;-79
2023/10/20 03:32:26;;;;;;;0.10;0.10;;;14.10;99.90;;;;;;5088339;28;20448;-81
2023/10/20 03:34:52;;;;;;;0.00;0.00;;;14.20;99.90;;;;;;5096295;28;20130;-86
2023/10/20 03:37:18;;;;;;;0.00;0.00;;;14.20;99.90;;;;;;5104754;27;20402;-81
2023/10/20 03:39:44;;;;;;;0.00;0.00;;;14.20;99.90;;;;;;5088057;28;20034;-82
2023/10/20 03:42:13;;;;;;;0.00;0.00;;;14.30;99.90;;;;;;5107758;27;20743;-80
2023/10/20 03:44:39;;;;;;;0.05;0.05;;;14.40;99.90;;;;;;5104162;28;20493;-78
2023/10/20 03:47:05;;;;;;;0.00;0.00;;;14.40;99.90;;;;;;5105278;28;20062;-82
2023/10/20 03:49:35;;;;;;;0.00;0.00;;;14.40;99.90;;;;;;5103751;28;20040;-82
2023/10/20 03:52:02;;;;;;;0.00;0.00;;;14.20;99.90;;;;;;5102753;27;20579;-83
2023/10/20 03:54:30;;;;;;;0.10;0.10;;;14.20;99.90;;;;;;5109350;27;20089;-82
2023/10/20 03:56:57;;;;;;;0.10;0.10;;;14.20;99.90;;;;;;5107623;27;20031;-85
2023/10/20 03:59:24;;;;;;;0.00;0.00;;;14.20;99.90;;;;;;5102492;28;20118;-81
2023/10/20 04:01:51;;;;;;;0.00;0.00;;;14.30;99.90;;;;;;5108225;27;20799;-79
2023/10/20 04:04:17;;;;;;;0.03;0.03;;;14.40;99.90;;;;;;5108912;27;20104;-82
2023/10/20 04:06:44;;;;;;;0.10;0.10;;;14.50;99.90;;;;;;5089092;28;20028;-85
2023/10/20 04:09:10;;;;;;;6.05;1.83;;;14.30;99.90;;;;;;5083923;28;20293;-79
2023/10/20 04:11:37;;;;;;;0.00;0.00;;;14.20;99.90;;;;;;5107673;28;20024;-83
2023/10/20 04:14:05;;;;;;;0.00;0.00;;;14.40;99.90;;;;;;5105222;28;20707;-84
2023/10/20 04:16:37;;;;;;;0.00;0.00;;;14.40;99.90;;;;;;5104840;28;20028;-81
2023/10/20 04:19:04;;;;;;;0.00;0.00;;;14.40;99.90;;;;;;5102494;28;20026;-84
2023/10/20 04:21:30;;;;;;;0.03;0.03;;;14.30;99.90;;;;;;5102886;28;20020;-80
2023/10/20 04:23:56;;;;;;;0.10;0.10;;;14.30;99.90;;;;;;5103567;28;20528;-81
2023/10/20 04:26:22;;;;;;;0.00;0.00;;;14.30;99.90;;;;;;5085370;28;20261;-80
2023/10/20 04:28:51;;;;;;;0.10;0.10;;;14.30;99.90;;;;;;5102705;28;20027;-80
2023/10/20 04:44:59;;;;;;;0.00;0.00;;;14.20;99.90;;;;;;5095376;28;20738;-80
2023/10/20 05:05:39;;;;;;;0.00;0.00;;;14.00;99.90;;;;;;5110256;27;20032;-84
2023/10/20 05:08:28;;;;;;;0.00;0.00;;;14.10;99.90;;;;;;5107533;27;20035;-79
2023/10/20 05:10:53;;;;;;;0.00;0.00;;;14.10;99.90;;;;;;5104241;27;20047;-80
2023/10/20 05:13:19;;;;;;;0.10;0.10;;;14.10;99.90;;;;;;5085224;28;20421;-81
2023/10/20 05:15:46;;;;;;;0.00;0.00;;;14.10;99.90;;;;;;5110290;27;20020;-79
2023/10/20 05:18:11;;;;;;;0.00;0.00;;;14.10;99.90;;;;;;5107803;27;20047;-80
2023/10/20 05:20:38;;;;;;;0.10;0.10;;;14.10;99.90;;;;;;5090779;28;20123;-83
2023/10/20 05:23:05;;;;;;;0.00;0.00;;;14.00;99.90;;;;;;5105224;27;20034;-83
2023/10/20 05:25:31;;;;;;;0.00;0.00;;;13.90;99.90;;;;;;5106165;27;20397;-81
2023/10/20 05:27:57;;;;;;;0.00;0.00;;;13.80;99.90;;;;;;5106895;27;20027;-84
2023/10/20 05:30:22;;;;;;;0.00;0.00;;;13.70;99.90;;;;;;5101438;28;20089;-84
2023/10/20 05:32:48;;;;;;;0.00;0.00;;;13.50;99.90;;;;;;5092444;28;20399;-83
2023/10/20 05:35:14;;;;;;;0.03;0.03;;;13.60;99.90;;;;;;5098602;27;20059;-81
2023/10/20 05:37:39;;;;;;;0.10;0.10;;;13.50;99.90;;;;;;5103857;27;20514;-82
2023/10/20 05:40:06;;;;;;;0.00;0.00;;;13.30;99.90;;;;;;5089232;28;20030;-80
2023/10/20 05:42:32;;;;;;;0.10;0.10;;;13.20;99.90;;;;;;5105552;28;20105;-82
2023/10/20 05:45:09;;;;;;;0.10;0.10;;;13.20;99.90;;;;;;5101236;27;20713;-85
2023/10/20 05:47:35;;;;;;;0.00;0.00;;;13.30;99.90;;;;;;5099003;27;20032;-81
2023/10/20 05:50:02;;;;;;;0.00;0.00;;;13.40;99.90;;;;;;5102707;27;20039;-82
2023/10/20 05:52:28;;;;;;;0.10;0.10;;;13.60;99.90;;;;;;5112144;27;20035;-79
2023/10/20 05:54:56;;;;;;;0.10;0.10;;;13.60;99.90;;;;;;5107800;27;20019;-84
2023/10/20 05:57:24;;;;;;;0.10;0.10;;;13.60;99.90;;;;;;5089436;28;20352;-81
2023/10/20 05:59:50;;;;;;;0.00;0.00;;;13.70;99.90;;;;;;5091469;28;20040;-79
2023/10/20 06:02:16;;;;;;;0.10;0.10;;;13.70;99.90;;;;;;5107707;27;20046;-83
2023/10/20 06:04:42;;;;;;;0.10;0.10;;;13.80;99.90;;;;;;5097728;28;20554;-84
2023/10/20 06:07:07;;;;;;;0.00;0.00;;;13.80;99.90;;;;;;5085213;28;20026;-82
2023/10/20 06:09:33;;;;;;;0.10;0.10;;;13.80;99.90;;;;;;5096922;28;20040;-85
2023/10/20 06:12:00;;;;;;;0.10;0.10;;;13.50;99.90;;;;;;5105903;27;20044;-82
2023/10/20 06:14:26;;;;;;;0.00;0.00;;;13.30;99.90;;;;;;5109422;27;20549;-82
2023/10/20 06:16:52;;;;;;;0.00;0.00;;;13.20;99.90;;;;;;5090114;28;20042;-84
2023/10/20 06:19:18;;;;;;;0.10;0.10;;;13.10;99.90;;;;;;5098405;27;20063;-83
2023/10/20 06:21:45;;;;;;;0.10;0.10;;;13.00;99.90;;;;;;5103161;27;20054;-83
2023/10/20 06:24:11;;;;;;;0.00;0.00;;;13.10;99.90;;;;;;5108961;27;20027;-81
2023/10/20 06:26:37;;;;;;;0.10;0.10;;;13.20;99.90;;;;;;5098497;27;20802;-84
2023/10/20 06:29:13;;;;;;;0.03;0.03;;;13.10;99.90;;;;;;5103793;27;20108;-83
2023/10/20 06:31:42;;;;;;;;;;;13.10;99.90;;;;;;5104961;27;20028;-82
2023/10/20 06:34:30;;;;;;;0.10;0.10;;;13.10;99.90;;;;;;5097872;27;19912;-84
2023/10/20 06:37:07;;;;;;;0.10;0.10;;;13.00;99.90;;;;;;5101898;27;20084;-84
2023/10/20 06:39:35;;;;;;;0.00;0.00;;;13.10;99.90;;;;;;5104773;27;20041;-84
2023/10/20 06:42:01;;;;;;;0.10;0.10;;;13.30;99.90;;;;;;5107269;27;20107;-82
2023/10/20 06:44:26;;;;;;;0.00;0.00;;;13.30;99.90;;;;;;5103872;27;20107;-80
2023/10/20 06:46:52;;;;;;;0.00;0.00;;;13.50;99.90;;;;;;5114330;27;20088;-85
2023/10/20 06:49:18;;;;;;;0.00;0.00;;;13.80;99.90;;;;;;5102447;28;20042;-82
2023/10/20 06:51:46;;;;;;;0.07;0.07;;;14.80;99.90;;;;;;5102743;27;20032;-83
2023/10/20 06:54:12;;;;;;;0.10;0.10;;;15.50;99.90;;;;;;5114321;27;20011;-81
2023/10/20 06:56:38;;;;;;;0.10;0.10;;;16.10;99.90;;;;;;5115667;27;20027;-87
2023/10/20 06:59:04;;;;;;;0.00;0.00;;;16.20;99.90;;;;;;5103902;27;20077;-85
2023/10/20 07:01:33;;;;;;;0.00;0.00;;;15.50;99.90;;;;;;5106129;27;20023;-81
2023/10/20 07:03:59;;;;;;;0.00;0.00;;;14.60;99.90;;;;;;5099959;28;20020;-81
2023/10/20 07:06:25;;;;;;;0.00;0.00;;;15.60;99.90;;;;;;5110377;27;20054;-84
2023/10/20 07:08:51;;;;;;;0.10;0.10;;;16.60;99.90;;;;;;5104339;27;20485;-81
2023/10/20 07:11:17;;;;;;;0.00;0.00;;;16.90;99.90;;;;;;5105244;28;20040;-80
2023/10/20 07:13:46;;;;;;;0.00;0.00;;;17.10;99.90;;;;;;5098965;28;20056;-88
2023/10/20 07:16:14;;;;;;;0.00;0.00;;;17.50;99.90;;;;;;5086407;28;20054;-81
2023/10/20 07:18:40;;;;;;;0.00;0.00;;;16.80;99.90;;;;;;5086506;28;20081;-81
2023/10/20 07:21:05;;;;;;;0.00;0.00;;;17.10;99.90;;;;;;5105675;27;20391;-85
2023/10/20 07:23:34;;;;;;;0.00;0.00;;;16.70;99.90;;;;;;5104541;27;20153;-82
2023/10/20 07:26:00;;;;;;;0.00;0.00;;;17.80;99.90;;;;;;5097563;27;20024;-80
2023/10/20 07:28:26;;;;;;;0.00;0.00;;;17.90;99.90;;;;;;5103399;28;20042;-81
2023/10/20 07:30:53;;;;;;;0.00;0.00;;;18.50;99.90;;;;;;5104570;28;20106;-83
2023/10/20 07:33:19;;;;;;;0.00;0.00;;;19.00;99.90;;;;;;5106185;27;20023;-81
2023/10/20 07:35:45;;;;;;;0.00;0.00;;;19.30;99.90;;;;;;5108460;27;20092;-79
2023/10/20 07:38:12;;;;;;;0.00;0.00;;;19.20;99.90;;;;;;5101849;27;20020;-81
2023/10/20 07:40:38;;;;;;;0.00;0.00;;;19.30;99.40;;;;;;5084039;28;20062;-83
2023/10/20 07:43:06;;;;;;;0.00;0.00;;;19.60;99.90;;;;;;5100206;28;20063;-82
2023/10/20 07:45:41;;;;;;;0.00;0.00;;;19.80;99.20;;;;;;5104974;28;20027;-84
2023/10/20 07:48:08;;;;;;;0.00;0.00;;;20.00;97.10;;;;;;5099753;28;20942;-83
2023/10/20 07:50:34;;;;;;;;;;;20.10;97.60;;;;;;5077773;28;20031;-81
2023/10/20 07:53:01;;;;;;;0.00;0.00;;;20.20;96.30;;;;;;5103837;28;19967;-79
2023/10/20 07:55:26;;;;;;;0.00;0.00;;;20.20;96.10;;;;;;5095324;28;20052;-80
2023/10/20 07:57:54;;;;;;;0.00;0.00;;;20.20;95.30;;;;;;5090531;28;20099;-79
2023/10/20 08:00:20;;;;;;;0.00;0.00;;;20.40;94.20;;;;;;5096156;28;20798;-80
2023/10/20 08:02:45;;;;;;;0.00;0.00;;;20.50;93.70;;;;;;5090998;28;20062;-78
2023/10/20 08:05:11;;;;;;;0.00;0.00;;;20.50;93.80;;;;;;5087509;28;20032;-79
2023/10/20 08:07:39;;;;;;;0.00;0.00;;;21.00;92.20;;;;;;5075358;28;20030;-80
2023/10/20 08:10:07;;;;;;;0.00;0.00;;;21.20;93.10;;;;;;5087589;28;20079;-80
2023/10/20 08:12:33;;;;;;;2.53;1.00;;;21.20;92.10;;;;;;5101921;28;20093;-84
2023/10/20 08:14:58;;;;;;;0.00;0.00;;;21.50;92.00;;;;;;5096159;28;20039;-79
2023/10/20 08:17:24;;;;;;;0.00;0.00;;;21.50;91.70;;;;;;5094067;28;20262;-80
2023/10/20 08:19:50;;;;;;;0.00;0.00;;;21.70;91.00;;;;;;5103317;28;20055;-79
2023/10/20 08:22:16;;;;;;;0.00;0.00;;;21.20;90.50;;;;;;5078011;28;20036;-80
2023/10/20 08:24:41;;;;;;;0.00;0.00;;;21.60;89.10;;;;;;5103191;28;20058;-80
2023/10/20 08:27:07;;;;;;;0.00;0.00;;;19.50;88.80;;;;;;5102552;28;20402;-83
2023/10/20 08:29:33;;;;;;;0.00;0.00;;;20.80;90.80;;;;;;5096424;28;20028;-82
2023/10/20 08:31:59;;;;;;;0.00;0.00;;;21.40;89.90;;;;;;5098752;28;20107;-80
2023/10/20 08:34:24;;;;;;;0.00;0.00;;;21.10;89.20;;;;;;5106756;27;20100;-82
2023/10/20 08:36:50;;;;;;;0.00;0.00;;;19.50;90.50;;;;;;5107350;28;20031;-80
2023/10/20 08:39:24;;;;;;;0.00;0.00;;;18.20;90.90;;;;;;5092808;28;20482;-80
2023/10/20 08:41:50;;;;;;;0.22;0.22;;;19.30;91.60;;;;;;5098606;28;20621;-79
2023/10/20 08:44:17;;;;;;;2.17;1.23;;;19.50;89.60;;;;;;5108740;27;20031;-81
2023/10/20 08:46:44;;;;;;;0.00;0.00;;;19.00;91.60;;;;;;5106639;27;20538;-84
2023/10/20 08:49:11;;;;;;;2.08;1.98;;;18.80;91.10;;;;;;5107262;27;20020;-79
2023/10/20 08:51:40;;;;;;;0.10;0.10;;;18.70;91.20;;;;;;5117790;27;20043;-80
2023/10/20 08:54:09;;;;;;;0.00;0.00;;;18.50;91.90;;;;;;5117634;27;20070;-80
2023/10/20 08:56:35;;;;;;;0.00;0.00;;;18.20;91.40;;;;;;5122647;27;20027;-80
2023/10/20 08:59:01;;;;;;;0.38;0.38;;;17.70;90.90;;;;;;5117208;27;20073;-79
2023/10/20 09:01:26;;;;;;;0.17;0.17;;;17.40;90.80;;;;;;5113774;27;20473;-80
2023/10/20 09:03:54;;;;;;;0.00;0.00;;;17.50;93.50;;;;;;5096024;28;20865;-82
2023/10/20 09:06:25;;;;;;;7.10;2.05;;;17.40;92.90;;;;;;5090929;28;20026;-79
2023/10/20 09:08:51;;;;;;;0.00;0.00;;;17.30;94.00;;;;;;5087689;28;20093;-79
2023/10/20 09:11:20;;;;;;;0.00;0.00;;;17.60;94.60;;;;;;5114022;27;20122;-81
2023/10/20 09:13:47;;;;;;;0.00;0.00;;;17.60;94.30;;;;;;5100476;27;20023;-78
2023/10/20 09:16:14;;;;;;;0.00;0.00;;;17.80;94.80;;;;;;5112143;27;20823;-83
2023/10/20 09:18:48;;;;;;;0.00;0.00;;;17.60;93.80;;;;;;5111961;27;20020;-80
2023/10/20 09:21:16;;;;;;;0.00;0.00;;;17.60;92.70;;;;;;5112139;27;20055;-81
2023/10/20 09:23:55;;;;;;;0.00;0.00;;;17.80;93.80;;;;;;5112956;27;20019;-79
2023/10/20 09:26:21;;;;;;;0.00;0.00;;;17.90;93.80;;;;;;5112589;27;20031;-78
2023/10/20 09:28:53;;;;;;;0.65;0.65;;;17.80;93.60;;;;;;5090977;27;20091;-79
2023/10/20 09:31:19;;;;;;;0.10;0.10;;;17.50;94.10;;;;;;5092402;28;20047;-82
2023/10/20 09:33:46;;;;;;;4.05;3.72;;;17.40;94.60;;;;;;5109174;27;20020;-82
2023/10/20 09:36:12;;;;;;;0.00;0.00;;;17.10;94.30;;;;;;5105814;28;20028;-79
2023/10/20 09:38:38;;;;;;;0.00;0.00;;;17.00;94.70;;;;;;5087714;28;20811;-80
2023/10/20 09:41:17;;;;;;;0.00;0.00;;;16.80;96.20;;;;;;5105552;28;20035;-85
2023/10/20 09:43:53;;;;;;;3.95;1.63;;;16.60;96.90;;;;;;5097470;27;20023;-83
2023/10/20 09:46:18;;;;;;;0.20;0.20;;;16.40;97.50;;;;;;5106161;27;20028;-82
2023/10/20 09:48:47;;;;;;;0.87;0.87;;;16.20;96.50;;;;;;5095590;28;20020;-82
2023/10/20 09:51:15;;;;;;;0.00;0.00;;;16.20;97.10;;;;;;5102322;28;20039;-82
2023/10/20 09:53:42;;;;;;;0.00;0.00;;;16.40;97.60;;;;;;5101197;28;20394;-80
2023/10/20 09:56:08;;;;;;;0.00;0.00;;;16.20;98.40;;;;;;5087641;28;20023;-84
2023/10/20 09:58:36;;;;;;;0.00;0.00;;;16.10;99.10;;;;;;5105694;28;20024;-81
2023/10/20 10:01:03;;;;;;;0.03;0.03;;;16.20;98.80;;;;;;5105577;27;20036;-84
2023/10/20 10:03:30;;;;;;;0.00;0.00;;;16.10;98.40;;;;;;5105389;28;20114;-80
2023/10/20 10:05:56;;;;;;;0.03;0.03;;;16.10;99.20;;;;;;5097762;27;20080;-81
2023/10/20 10:08:21;;;;;;;0.00;0.00;;;16.00;99.50;;;;;;5104677;28;20050;-79
2023/10/20 10:10:49;;;;;;;0.00;0.00;;;16.30;99.40;;;;;;5108942;27;20039;-80
2023/10/20 10:13:14;;;;;;;0.10;0.10;;;16.20;99.10;;;;;;5114142;27;20054;-81
2023/10/20 10:15:43;;;;;;;0.00;0.00;;;15.90;99.30;;;;;;5105245;28;20154;-80
2023/10/20 10:18:11;;;;;;;0.00;0.00;;;15.60;99.90;;;;;;5093179;28;20089;-80
2023/10/20 10:20:43;;;;;;;0.00;0.00;;;15.60;99.90;;;;;;5104406;28;20038;-81
2023/10/20 10:23:14;;;;;;;0.00;0.00;;;15.40;99.90;;;;;;5104860;28;20514;-81
2023/10/20 10:25:41;;;;;;;0.00;0.00;;;15.20;99.90;;;;;;5103985;28;20027;-79
2023/10/20 10:28:09;;;;;;;0.00;0.00;;;15.10;99.90;;;;;;5104981;28;20826;-81
2023/10/20 10:30:37;;;;;;;0.00;0.00;;;15.20;99.90;;;;;;5085851;28;20059;-82
2023/10/20 10:33:04;;;;;;;0.00;0.00;;;15.10;99.90;;;;;;5099038;27;20773;-83
2023/10/20 10:35:30;;;;;;;0.00;0.00;;;14.90;99.90;;;;;;5103740;28;20115;-79
2023/10/20 10:37:55;;;;;;;0.00;0.00;;;14.70;99.90;;;;;;5107983;27;20466;-79
2023/10/20 10:40:22;;;;;;;0.00;0.00;;;14.50;99.90;;;;;;5112957;27;20024;-81
2023/10/20 10:42:50;;;;;;;;;;;14.30;99.90;;;;;;5108721;27;20025;-85
2023/10/20 10:45:23;;;;;;;0.00;0.00;;;14.50;99.90;;;;;;5123279;27;19904;-79
2023/10/20 10:47:50;;;;;;;0.10;0.10;;;14.20;99.90;;;;;;5114100;27;20173;-80
2023/10/20 10:50:19;;;;;;;0.00;0.00;;;14.00;99.90;;;;;;5115361;27;20041;-79
2023/10/20 10:52:46;;;;;;;0.03;0.03;;;14.00;99.90;;;;;;5107448;27;20019;-79
2023/10/20 10:55:13;;;;;;;0.10;0.10;;;14.10;99.90;;;;;;5114722;27;20100;-83
2023/10/20 10:57:40;;;;;;;0.10;0.10;;;14.20;99.90;;;;;;5119086;27;20417;-79
2023/10/20 11:00:07;;;;;;;0.00;0.00;;;14.30;99.90;;;;;;5118471;27;20030;-78
2023/10/20 11:02:33;;;;;;;0.00;0.00;;;14.50;99.90;;;;;;5108940;27;20512;-83
2023/10/20 11:05:00;;;;;;;0.00;0.00;;;14.50;99.90;;;;;;5100509;27;20032;-79
2023/10/20 11:07:26;;;;;;;0.38;0.38;;;14.40;99.90;;;;;;5106896;27;20506;-82
2023/10/20 11:09:53;;;;;;;0.00;0.00;;;14.40;99.90;;;;;;5112282;27;20090;-81
2023/10/20 11:12:20;;;;;;;;;;;14.20;99.90;;;;;;5115516;27;20046;-79
2023/10/20 11:14:46;;;;;;;0.00;0.00;;;14.40;99.90;;;;;;5115544;27;19981;-79
2023/10/20 11:17:14;;;;;;;0.08;0.08;;;14.40;99.90;;;;;;5094915;27;20444;-83
2023/10/20 11:19:40;;;;;;;0.05;0.05;;;14.30;99.90;;;;;;5087558;28;20043;-80
2023/10/20 11:22:15;;;;;;;0.00;0.00;;;14.30;99.90;;;;;;5106725;27;20489;-79
2023/10/20 11:24:41;;;;;;;0.00;0.00;;;14.30;99.90;;;;;;5097742;28;20374;-79
2023/10/20 11:27:08;;;;;;;0.00;0.00;;;14.30;99.90;;;;;;5110669;27;20080;-80
2023/10/20 11:29:35;;;;;;;0.00;0.00;;;14.50;99.90;;;;;;5108676;27;20074;-81
2023/10/20 11:32:07;;;;;;;0.00;0.00;;;14.20;99.90;;;;;;5110339;27;20028;-80
2023/10/20 11:34:36;;;;;;;0.05;0.05;;;14.10;99.90;;;;;;5095879;28;20035;-84
2023/10/20 11:37:03;;;;;;;0.00;0.00;;;14.30;99.90;;;;;;5104076;28;20016;-80
2023/10/20 11:39:29;;;;;;;0.00;0.00;;;14.30;99.90;;;;;;5115310;27;20475;-79
2023/10/20 11:41:55;;;;;;;0.00;0.00;;;14.40;99.90;;;;;;5103543;28;20081;-81
2023/10/20 11:44:24;;;;;;;0.00;0.00;;;14.50;99.90;;;;;;5103599;28;20019;-80
2023/10/20 11:46:53;;;;;;;0.00;0.00;;;14.30;99.90;;;;;;5104039;28;20042;-80
2023/10/20 11:49:20;;;;;;;0.00;0.00;;;14.40;99.90;;;;;;5103602;27;20016;-78
2023/10/20 11:51:45;;;;;;;0.00;0.00;;;14.40;99.90;;;;;;5096653;28;20024;-79
2023/10/20 11:54:12;;;;;;;0.00;0.00;;;14.30;99.90;;;;;;5112851;27;20474;-79
2023/10/20 11:56:38;;;;;;;0.47;0.47;;;14.30;99.90;;;;;;5103436;28;20024;-81
2023/10/20 11:59:04;;;;;;;0.00;0.00;;;14.30;99.90;;;;;;5105723;27;20027;-80
2023/10/20 12:01:33;;;;;;;0.00;0.00;;;14.30;99.90;;;;;;5109929;27;20198;-79
2023/10/20 12:04:05;;;;;;;0.10;0.10;;;14.30;99.90;;;;;;5106938;27;20569;-80
2023/10/20 12:06:31;;;;;;;0.00;0.00;;;14.30;99.90;;;;;;5102579;28;20051;-80
2023/10/20 12:08:57;;;;;;;0.08;0.08;;;14.40;99.90;;;;;;5103934;28;20132;-79
2023/10/20 12:11:23;;;;;;;0.10;0.10;;;14.40;99.90;;;;;;5107855;27;20040;-83
2023/10/20 12:13:49;;;;;;;0.00;0.00;;;13.90;99.90;;;;;;5101913;28;20899;-81
2023/10/20 12:16:15;;;;;;;0.00;0.00;;;14.00;99.90;;;;;;5103019;28;20027;-81
2023/10/20 12:18:44;;;;;;;0.00;0.00;;;14.00;99.90;;;;;;5104608;28;20340;-79
2023/10/20 12:21:10;;;;;;;0.10;0.10;;;14.10;99.90;;;;;;5113014;28;20422;-79
2023/10/20 12:23:36;;;;;;;0.00;0.00;;;14.40;99.90;;;;;;5103007;28;20032;-81
2023/10/20 12:26:05;;;;;;;0.00;0.00;;;14.40;99.90;;;;;;5103604;28;20066;-79
2023/10/20 12:28:31;;;;;;;0.00;0.00;;;14.40;99.90;;;;;;5084751;28;20055;-80
2023/10/20 12:30:59;;;;;;;0.00;0.00;;;14.50;99.90;;;;;;5102989;28;20157;-80
2023/10/20 12:33:25;;;;;;;0.10;0.10;;;14.80;99.90;;;;;;5095727;28;20491;-80
2023/10/20 12:35:57;;;;;;;0.15;0.15;;;15.00;99.90;;;;;;5102889;28;20058;-79
2023/10/20 12:38:23;;;;;;;0.00;0.00;;;14.70;99.90;;;;;;5110930;28;20027;-86
2023/10/20 12:40:49;;;;;;;0.05;0.05;;;14.40;99.90;;;;;;5107222;28;20840;-81
2023/10/20 12:43:16;;;;;;;0.00;0.00;;;14.30;99.90;;;;;;5102838;28;20764;-80
2023/10/20 12:45:41;;;;;;;0.00;0.00;;;14.40;99.90;;;;;;5113944;28;20107;-79
2023/10/20 12:48:07;;;;;;;0.00;0.00;;;14.50;99.90;;;;;;5096357;28;20389;-80
2023/10/20 12:50:33;;;;;;;0.00;0.00;;;14.40;99.90;;;;;;5098637;28;20130;-82
2023/10/20 12:53:03;;;;;;;0.10;0.10;;;14.50;99.90;;;;;;5111707;28;20481;-79
2023/10/20 12:55:30;;;;;;;0.10;0.10;;;14.50;99.90;;;;;;5115564;28;20085;-79
2023/10/20 12:57:56;;;;;;;4.90;4.13;;;14.50;99.90;;;;;;5099161;28;20055;-79
2023/10/20 13:00:22;;;;;;;0.00;0.00;;;14.70;99.90;;;;;;5105307;28;20077;-79
2023/10/20 13:02:50;;;;;;;0.00;0.00;;;14.60;99.90;;;;;;5117329;28;20035;-82
2023/10/20 13:05:16;;;;;;;0.00;0.00;;;14.60;99.90;;;;;;5095055;28;20020;-81
2023/10/20 13:07:42;;;;;;;;;;;14.70;99.90;;;;;;5105547;28;20024;-80
2023/10/20 13:10:09;;;;;;;0.00;0.00;;;14.90;99.90;;;;;;5103083;28;20298;-83
2023/10/20 13:12:35;;;;;;;0.00;0.00;;;15.10;99.90;;;;;;5110203;28;20031;-82
2023/10/20 13:15:01;;;;;;;0.00;0.00;;;15.00;99.90;;;;;;5109971;28;20032;-81
2023/10/20 13:17:27;;;;;;;0.00;0.00;;;15.10;99.90;;;;;;5108782;28;20031;-79
2023/10/20 13:19:53;;;;;;;0.08;0.08;;;15.40;99.90;;;;;;5105708;28;20035;-80